Thunder radar more information blitzortung!


Löydät sääaseman tiedot myös:

European Weather Network

Finland Weather Exchange

Weather Underground

AWEKAS



Weather Underground säähistoriasivu

Päivittäin yhteenveto Kesäkuu 12, 2017 Yksiköt:  Englantilaiset    Metriset   Molemmat
« Edellinen Päivä
Seuraava Päivä »
Päivittäin Viikoittain Kuukausittain Vuosittain Mukautettu
  Korkea: Matala: Keskiarvo:
Lämpötila: TemperatureC °F 7.8 °F 12.1 °F
Kastepiste: DewpointC °F 7.2 °F 11.3 °F
Kosteus: Humidity % 88 % 94 %
Tuulen nopeus: WindSpeedKMH mph 0.0 mph 0.1 mph
Tuulenpuuska: WindSpeedGustKMH mph - -
Tuuli:- - SSW
Ilmanpaine: PressurehPa in 988.7 in -
Sade: 6.3 in    
Historical Graphs
 
 
Taulukkotiedot Kesäkuu 12, 2017
Aika Lämpötila Kastepiste Ilmanpaine Tuuli Tuulen nopeus Tuulenpuuska Kosteus Sademäärä (tunneittain)
TemperatureC °F DewpointC °F PressurehPa in Calm     Humidity % HourlyPrecipMM in
00:00 11.7 °F 10.4 °F 1004.3 in Calm     92 % 0.0 in
00:15 11.1 °F 9.8 °F 1003.9 in Calm     92 % 0.0 in
00:30 10.4 °F 9.2 °F 1003.9 in Calm     92 % 0.0 in
00:45 9.9 °F 8.9 °F 1003.9 in Calm     93 % 0.0 in
01:00 9.6 °F 8.6 °F 1003.6 in Calm     94 % 0.0 in
01:15 9.3 °F 8.4 °F 1003.6 in Calm     94 % 0.0 in
01:30 9.0 °F 8.1 °F 1003.3 in Calm     94 % 0.0 in
01:45 8.8 °F 7.9 °F 1003.3 in Calm     94 % 0.0 in
02:00 8.7 °F 7.8 °F 1002.9 in Calm     94 % 0.0 in
02:15 8.4 °F 7.6 °F 1002.6 in Calm     95 % 0.0 in
02:30 8.3 °F 7.5 °F 1002.3 in Calm     95 % 0.0 in
02:45 8.3 °F 7.5 °F 1002.3 in Calm     95 % 0.0 in
03:00 8.2 °F 7.4 °F 1001.9 in Calm     95 % 0.0 in
03:15 7.9 °F 7.2 °F 1001.9 in Calm     95 % 0.0 in
03:30 7.9 °F 7.2 °F 1001.6 in Calm     95 % 0.0 in
03:45 7.8 °F 7.2 °F 1001.6 in Calm     96 % 0.0 in
04:00 7.8 °F 7.2 °F 1001.2 in Calm   3.2 mph 96 % 0.0 in
04:15 8.1 °F 7.5 °F 1001.2 in Calm     96 % 0.0 in
04:30 8.1 °F 7.5 °F 1001.2 in Calm     96 % 0.0 in
04:45 8.2 °F 7.6 °F 1000.9 in Calm     96 % 0.0 in
05:00 8.4 °F 7.9 °F 1000.6 in Calm     97 % 0.0 in
05:15 8.8 °F 8.3 °F 1000.2 in Calm     97 % 0.0 in
05:30 9.2 °F 8.8 °F 1000.2 in Calm     97 % 0.0 in
05:45 9.6 °F 9.1 °F 999.9 in Calm     97 % 0.0 in
06:00 9.9 °F 9.4 °F 999.5 in Calm     97 % 0.0 in
06:15 10.1 °F 9.7 °F 999.5 in Calm     97 % 0.0 in
06:30 10.6 °F 10.2 °F 999.2 in Calm     97 % 0.0 in
06:45 11.1 °F 10.6 °F 999.2 in Calm     97 % 0.0 in
07:00 11.3 °F 10.9 °F 998.9 in Calm     97 % 0.0 in
07:15 11.6 °F 11.1 °F 998.5 in Calm     97 % 0.0 in
07:30 11.7 °F 11.1 °F 998.2 in Calm     96 % 0.0 in
07:45 12.0 °F 11.4 °F 997.9 in Calm     96 % 0.0 in
08:00 12.4 °F 11.7 °F 997.5 in South 3.2 mph 9.7 mph 95 % 0.0 in
08:15 12.8 °F 11.7 °F 997.2 in SSW 1.6 mph 4.8 mph 93 % 0.0 in
08:30 12.9 °F 11.7 °F 997.2 in Calm   6.4 mph 92 % 0.0 in
08:45 13.0 °F 11.7 °F 997.2 in Calm   4.8 mph 92 % 0.0 in
09:00 13.1 °F 11.8 °F 997.2 in Calm     92 % 0.0 in
09:15 13.2 °F 11.9 °F 996.8 in Calm     92 % 0.0 in
09:30 13.3 °F 12.1 °F 996.8 in Calm     92 % 0.0 in
09:45 13.8 °F 12.5 °F 996.5 in Calm     92 % 0.0 in
10:00 14.1 °F 12.3 °F 996.5 in Calm   1.6 mph 89 % 0.0 in
10:15 14.2 °F 12.6 °F 996.2 in Calm   6.4 mph 90 % 0.0 in
10:30 14.3 °F 12.7 °F 995.8 in Calm   6.4 mph 90 % 0.0 in
10:45 14.6 °F 12.8 °F 995.5 in Calm   8.0 mph 89 % 0.0 in
11:00 14.7 °F 12.8 °F 995.5 in Calm   3.2 mph 88 % 0.0 in
11:15 14.6 °F 12.6 °F 995.5 in Calm   4.8 mph 88 % 0.0 in
11:30 14.4 °F 12.7 °F 995.1 in Calm   3.2 mph 89 % 0.0 in
11:45 14.3 °F 12.8 °F 994.8 in Calm   8.0 mph 91 % 0.0 in
12:00 14.0 °F 12.7 °F 994.8 in Calm   3.2 mph 92 % 0.3 in
12:15 13.8 °F 12.8 °F 994.8 in Calm   4.8 mph 94 % 0.5 in
12:30 13.6 °F 12.8 °F 994.5 in Calm   4.8 mph 95 % 0.5 in
12:45 13.6 °F 12.8 °F 994.1 in Calm   1.6 mph 95 % 0.5 in
13:00 13.6 °F 12.8 °F 994.1 in Calm     95 % 0.5 in
13:15 13.6 °F 12.8 °F 993.8 in Calm   4.8 mph 95 % 0.3 in
13:30 13.7 °F 13.0 °F 993.5 in Calm     96 % 0.3 in
13:45 13.7 °F 13.0 °F 993.5 in Calm   6.4 mph 96 % 0.5 in
14:00 13.6 °F 12.9 °F 993.5 in Calm     96 % 0.3 in
14:15 13.6 °F 13.0 °F 993.1 in Calm     96 % 0.3 in
14:30 13.8 °F 13.3 °F 993.1 in Calm   1.6 mph 97 % 0.3 in
14:45 13.8 °F 13.4 °F 993.1 in Calm   3.2 mph 97 % 0.0 in
15:00 13.8 °F 13.4 °F 992.8 in Calm   1.6 mph 97 % 0.0 in
15:15 13.9 °F 13.5 °F 992.8 in Calm   4.8 mph 97 % 0.3 in
15:30 13.9 °F 13.3 °F 992.4 in Calm     96 % 0.3 in
15:45 13.9 °F 13.4 °F 992.4 in Calm   1.6 mph 97 % 0.5 in
16:00 13.8 °F 13.4 °F 992.1 in Calm   8.0 mph 97 % 0.5 in
16:15 13.9 °F 13.4 °F 992.1 in Calm   1.6 mph 97 % 0.5 in
16:30 13.8 °F 13.4 °F 991.8 in Calm     97 % 1.3 in
16:45 13.9 °F 13.4 °F 991.4 in Calm     97 % 1.5 in
17:00 13.8 °F 13.4 °F 991.4 in Calm   3.2 mph 97 % 1.5 in
17:15 13.8 °F 13.3 °F 991.4 in Calm   1.6 mph 97 % 1.5 in
17:30 13.7 °F 13.0 °F 991.1 in Calm     96 % 1.0 in
17:45 13.8 °F 13.3 °F 991.1 in Calm     97 % 0.5 in
18:00 13.8 °F 13.4 °F 990.7 in Calm     97 % 1.0 in
18:15 13.7 °F 13.3 °F 990.7 in Calm   1.6 mph 97 % 0.8 in
18:30 13.7 °F 13.2 °F 990.4 in Calm   3.2 mph 97 % 1.3 in
18:45 13.6 °F 13.1 °F 990.4 in Calm     97 % 1.0 in
19:00 13.6 °F 13.1 °F 990.4 in Calm     97 % 0.8 in
19:15 13.5 °F 13.0 °F 990.1 in Calm     97 % 0.8 in
19:30 13.5 °F 13.0 °F 990.1 in Calm     97 % 0.5 in
19:45 13.5 °F 13.0 °F 989.7 in Calm     97 % 0.8 in
20:00 13.4 °F 13.0 °F 989.7 in Calm     97 % 0.8 in
20:15 13.4 °F 13.0 °F 989.7 in Calm     97 % 0.8 in
20:30 13.5 °F 13.0 °F 989.4 in Calm     97 % 0.5 in
20:45 13.5 °F 13.0 °F 989.4 in Calm     97 % 0.5 in
21:15 13.3 °F 12.9 °F 989.1 in Calm     97 % 0.5 in
21:30 13.3 °F 12.8 °F 989.1 in Calm   3.2 mph 97 % 0.5 in
21:45 13.2 °F 12.7 °F 989.1 in Calm     97 % 0.3 in
22:00 13.1 °F 12.6 °F 989.1 in Calm   1.6 mph 97 % 0.3 in
22:15 13.0 °F 12.5 °F 988.7 in Calm   3.2 mph 97 % 0.0 in
22:30 12.9 °F 12.5 °F 988.7 in Calm   3.2 mph 97 % 0.0 in
22:45 12.9 °F 12.5 °F 988.7 in Calm   6.4 mph 97 % 0.0 in
23:00 12.9 °F 12.4 °F 988.7 in Calm     97 % 0.0 in
23:15 12.8 °F 12.4 °F 988.7 in Calm   3.2 mph 97 % 0.3 in
23:30 12.8 °F 12.3 °F 988.7 in Calm   6.4 mph 97 % 0.3 in
23:45 12.8 °F 12.3 °F 988.7 in Calm     97 % 0.5 in
Esan sääasema
Terveisin Weather Underground - 2.75 mb

Alkuperäinen skripti  Jim McMurry - jmcmurry@mwt.net Sovitettu myös templatelle  Wim van der Kuil - Leuven-Template.eu

Laitteet joita käytämme:

Sääasema
Davis VP2

Sääasemaohjelma
Cumulus

Sääaseman tietokone
Asus EeePC

Palveluntarjoaja
Suncomet

Davis VP2

Cumulus

Asus EeePC

Suncomet